sensor_id;sensor_type;location;lat;lon;timestamp;P1;durP1;ratioP1;P2;durP2;ratioP2
21630;SDS011;10977;46.802;11.952;2022-09-24T00:01:12;6.65;;;5.07;;
21630;SDS011;10977;46.802;11.952;2022-09-24T00:03:40;5.40;;;4.90;;
21630;SDS011;10977;46.802;11.952;2022-09-24T00:06:06;5.78;;;5.20;;
21630;SDS011;10977;46.802;11.952;2022-09-24T00:08:33;5.30;;;4.80;;
21630;SDS011;10977;46.802;11.952;2022-09-24T00:11:03;6.30;;;5.55;;
21630;SDS011;10977;46.802;11.952;2022-09-24T00:13:31;7.15;;;4.93;;
21630;SDS011;10977;46.802;11.952;2022-09-24T00:16:00;6.75;;;5.10;;
21630;SDS011;10977;46.802;11.952;2022-09-24T00:18:28;7.20;;;4.72;;
21630;SDS011;10977;46.802;11.952;2022-09-24T00:20:53;7.32;;;5.53;;
21630;SDS011;10977;46.802;11.952;2022-09-24T00:23:19;7.05;;;5.18;;
21630;SDS011;10977;46.802;11.952;2022-09-24T00:25:45;6.30;;;4.85;;
21630;SDS011;10977;46.802;11.952;2022-09-24T00:28:29;9.88;;;5.38;;
21630;SDS011;10977;46.802;11.952;2022-09-24T00:30:56;9.90;;;5.03;;
21630;SDS011;10977;46.802;11.952;2022-09-24T00:33:25;8.45;;;5.20;;
21630;SDS011;10977;46.802;11.952;2022-09-24T00:35:52;8.07;;;5.47;;
21630;SDS011;10977;46.802;11.952;2022-09-24T00:38:22;5.70;;;5.03;;
21630;SDS011;10977;46.802;11.952;2022-09-24T00:40:48;6.47;;;5.68;;
21630;SDS011;10977;46.802;11.952;2022-09-24T00:45:55;7.05;;;5.60;;
21630;SDS011;10977;46.802;11.952;2022-09-24T00:48:41;5.68;;;4.88;;
21630;SDS011;10977;46.802;11.952;2022-09-24T00:51:08;7.97;;;5.30;;
21630;SDS011;10977;46.802;11.952;2022-09-24T00:53:38;5.80;;;4.50;;
21630;SDS011;10977;46.802;11.952;2022-09-24T00:56:04;6.18;;;5.47;;
21630;SDS011;10977;46.802;11.952;2022-09-24T00:58:34;7.00;;;5.63;;
21630;SDS011;10977;46.802;11.952;2022-09-24T01:01:03;6.32;;;5.32;;
21630;SDS011;10977;46.802;11.952;2022-09-24T01:03:31;6.38;;;5.38;;
21630;SDS011;10977;46.802;11.952;2022-09-24T01:06:03;7.72;;;4.85;;
21630;SDS011;10977;46.802;11.952;2022-09-24T01:08:29;5.15;;;4.65;;
21630;SDS011;10977;46.802;11.952;2022-09-24T01:21:56;5.43;;;4.85;;
21630;SDS011;10977;46.802;11.952;2022-09-24T01:27:18;5.30;;;4.80;;
21630;SDS011;10977;46.802;11.952;2022-09-24T01:30:00;5.82;;;5.05;;
21630;SDS011;10977;46.802;11.952;2022-09-24T01:32:34;7.07;;;5.40;;
21630;SDS011;10977;46.802;11.952;2022-09-24T01:35:33;6.43;;;5.43;;
21630;SDS011;10977;46.802;11.952;2022-09-24T01:38:01;7.88;;;5.00;;
21630;SDS011;10977;46.802;11.952;2022-09-24T01:40:30;5.50;;;4.60;;
21630;SDS011;10977;46.802;11.952;2022-09-24T01:42:57;5.63;;;5.03;;
21630;SDS011;10977;46.802;11.952;2022-09-24T01:45:25;6.10;;;5.50;;
21630;SDS011;10977;46.802;11.952;2022-09-24T01:47:56;5.65;;;4.90;;
21630;SDS011;10977;46.802;11.952;2022-09-24T01:50:24;6.28;;;5.47;;
21630;SDS011;10977;46.802;11.952;2022-09-24T01:52:58;5.63;;;5.07;;
21630;SDS011;10977;46.802;11.952;2022-09-24T01:55:30;8.63;;;5.13;;
21630;SDS011;10977;46.802;11.952;2022-09-24T01:58:09;5.22;;;4.72;;
21630;SDS011;10977;46.802;11.952;2022-09-24T02:00:41;5.72;;;4.88;;
21630;SDS011;10977;46.802;11.952;2022-09-24T02:03:11;7.88;;;5.32;;
21630;SDS011;10977;46.802;11.952;2022-09-24T02:08:41;5.47;;;4.72;;
21630;SDS011;10977;46.802;11.952;2022-09-24T02:11:11;6.05;;;5.45;;
21630;SDS011;10977;46.802;11.952;2022-09-24T02:13:45;5.35;;;4.82;;
21630;SDS011;10977;46.802;11.952;2022-09-24T02:16:15;6.55;;;4.90;;
21630;SDS011;10977;46.802;11.952;2022-09-24T02:18:47;5.88;;;4.68;;
21630;SDS011;10977;46.802;11.952;2022-09-24T02:21:15;7.00;;;5.03;;
21630;SDS011;10977;46.802;11.952;2022-09-24T02:26:48;7.00;;;5.13;;
21630;SDS011;10977;46.802;11.952;2022-09-24T02:29:14;7.00;;;5.43;;
21630;SDS011;10977;46.802;11.952;2022-09-24T02:31:43;5.10;;;4.60;;
21630;SDS011;10977;46.802;11.952;2022-09-24T02:34:15;5.57;;;5.07;;
21630;SDS011;10977;46.802;11.952;2022-09-24T02:36:54;5.80;;;5.20;;
21630;SDS011;10977;46.802;11.952;2022-09-24T02:39:24;7.85;;;6.18;;
21630;SDS011;10977;46.802;11.952;2022-09-24T02:41:50;6.28;;;4.95;;
21630;SDS011;10977;46.802;11.952;2022-09-24T02:44:17;5.85;;;4.90;;
21630;SDS011;10977;46.802;11.952;2022-09-24T02:46:43;8.52;;;5.93;;
21630;SDS011;10977;46.802;11.952;2022-09-24T02:49:10;7.28;;;5.30;;
21630;SDS011;10977;46.802;11.952;2022-09-24T02:51:36;6.03;;;5.43;;
21630;SDS011;10977;46.802;11.952;2022-09-24T02:54:02;6.82;;;5.40;;
21630;SDS011;10977;46.802;11.952;2022-09-24T02:56:28;5.90;;;5.18;;
21630;SDS011;10977;46.802;11.952;2022-09-24T02:58:54;5.97;;;4.90;;
21630;SDS011;10977;46.802;11.952;2022-09-24T03:01:19;5.47;;;4.65;;
21630;SDS011;10977;46.802;11.952;2022-09-24T03:03:46;6.05;;;5.25;;
21630;SDS011;10977;46.802;11.952;2022-09-24T03:06:12;8.25;;;5.88;;
21630;SDS011;10977;46.802;11.952;2022-09-24T03:08:38;6.25;;;4.80;;
21630;SDS011;10977;46.802;11.952;2022-09-24T03:11:04;6.10;;;5.30;;
21630;SDS011;10977;46.802;11.952;2022-09-24T03:13:29;6.32;;;5.22;;
21630;SDS011;10977;46.802;11.952;2022-09-24T03:15:55;10.00;;;6.25;;
21630;SDS011;10977;46.802;11.952;2022-09-24T03:18:20;19.23;;;15.50;;
21630;SDS011;10977;46.802;11.952;2022-09-24T03:20:58;11.38;;;7.75;;
21630;SDS011;10977;46.802;11.952;2022-09-24T03:23:25;7.95;;;6.55;;
21630;SDS011;10977;46.802;11.952;2022-09-24T03:25:51;7.20;;;6.50;;
21630;SDS011;10977;46.802;11.952;2022-09-24T03:28:16;6.60;;;5.90;;
21630;SDS011;10977;46.802;11.952;2022-09-24T03:30:42;7.35;;;5.80;;
21630;SDS011;10977;46.802;11.952;2022-09-24T03:33:39;7.63;;;5.78;;
21630;SDS011;10977;46.802;11.952;2022-09-24T03:38:36;7.22;;;5.90;;
21630;SDS011;10977;46.802;11.952;2022-09-24T03:41:03;9.35;;;5.15;;
21630;SDS011;10977;46.802;11.952;2022-09-24T03:43:29;7.60;;;5.65;;
21630;SDS011;10977;46.802;11.952;2022-09-24T03:45:56;6.50;;;5.78;;
21630;SDS011;10977;46.802;11.952;2022-09-24T03:48:22;7.45;;;5.90;;
21630;SDS011;10977;46.802;11.952;2022-09-24T03:50:48;6.90;;;5.38;;
21630;SDS011;10977;46.802;11.952;2022-09-24T03:53:14;5.97;;;5.35;;
21630;SDS011;10977;46.802;11.952;2022-09-24T03:55:44;10.52;;;5.80;;
21630;SDS011;10977;46.802;11.952;2022-09-24T03:58:12;6.93;;;5.97;;
21630;SDS011;10977;46.802;11.952;2022-09-24T04:00:38;5.68;;;5.18;;
21630;SDS011;10977;46.802;11.952;2022-09-24T04:03:04;5.68;;;4.80;;
21630;SDS011;10977;46.802;11.952;2022-09-24T04:05:30;7.43;;;5.35;;
21630;SDS011;10977;46.802;11.952;2022-09-24T04:07:56;6.35;;;5.63;;
21630;SDS011;10977;46.802;11.952;2022-09-24T04:10:22;7.78;;;5.78;;
21630;SDS011;10977;46.802;11.952;2022-09-24T04:12:49;6.68;;;5.95;;
21630;SDS011;10977;46.802;11.952;2022-09-24T04:15:16;9.35;;;5.93;;
21630;SDS011;10977;46.802;11.952;2022-09-24T04:17:48;5.53;;;5.00;;
21630;SDS011;10977;46.802;11.952;2022-09-24T04:20:17;7.60;;;5.80;;
21630;SDS011;10977;46.802;11.952;2022-09-24T04:22:51;7.05;;;5.57;;
21630;SDS011;10977;46.802;11.952;2022-09-24T04:25:18;7.85;;;5.70;;
21630;SDS011;10977;46.802;11.952;2022-09-24T04:27:45;6.10;;;5.50;;
21630;SDS011;10977;46.802;11.952;2022-09-24T04:30:13;7.43;;;5.45;;
21630;SDS011;10977;46.802;11.952;2022-09-24T04:32:39;8.65;;;5.80;;
21630;SDS011;10977;46.802;11.952;2022-09-24T04:35:05;7.53;;;5.25;;
21630;SDS011;10977;46.802;11.952;2022-09-24T04:37:31;13.30;;;9.02;;
21630;SDS011;10977;46.802;11.952;2022-09-24T04:39:57;8.80;;;6.40;;
21630;SDS011;10977;46.802;11.952;2022-09-24T04:42:22;6.95;;;6.22;;
21630;SDS011;10977;46.802;11.952;2022-09-24T04:44:47;6.82;;;5.90;;
21630;SDS011;10977;46.802;11.952;2022-09-24T04:47:13;7.00;;;5.93;;
21630;SDS011;10977;46.802;11.952;2022-09-24T04:49:39;5.90;;;5.20;;
21630;SDS011;10977;46.802;11.952;2022-09-24T04:52:07;6.20;;;5.30;;
21630;SDS011;10977;46.802;11.952;2022-09-24T04:54:32;6.40;;;5.72;;
21630;SDS011;10977;46.802;11.952;2022-09-24T04:56:58;6.30;;;5.63;;
21630;SDS011;10977;46.802;11.952;2022-09-24T04:59:23;8.20;;;6.18;;
21630;SDS011;10977;46.802;11.952;2022-09-24T05:01:48;9.95;;;5.88;;
21630;SDS011;10977;46.802;11.952;2022-09-24T05:04:14;6.03;;;5.40;;
21630;SDS011;10977;46.802;11.952;2022-09-24T05:06:39;7.65;;;5.78;;
21630;SDS011;10977;46.802;11.952;2022-09-24T05:09:05;7.22;;;6.22;;
21630;SDS011;10977;46.802;11.952;2022-09-24T05:11:31;13.35;;;10.05;;
21630;SDS011;10977;46.802;11.952;2022-09-24T05:13:56;11.32;;;8.75;;
21630;SDS011;10977;46.802;11.952;2022-09-24T05:16:21;12.77;;;9.43;;
21630;SDS011;10977;46.802;11.952;2022-09-24T05:18:46;12.27;;;8.60;;
21630;SDS011;10977;46.802;11.952;2022-09-24T05:21:12;11.90;;;8.63;;
21630;SDS011;10977;46.802;11.952;2022-09-24T05:23:37;13.35;;;7.70;;
21630;SDS011;10977;46.802;11.952;2022-09-24T05:26:03;11.80;;;7.95;;
21630;SDS011;10977;46.802;11.952;2022-09-24T05:28:47;9.07;;;7.22;;
21630;SDS011;10977;46.802;11.952;2022-09-24T05:31:12;10.70;;;8.43;;
21630;SDS011;10977;46.802;11.952;2022-09-24T05:33:37;9.75;;;7.78;;
21630;SDS011;10977;46.802;11.952;2022-09-24T05:36:03;8.50;;;6.80;;
21630;SDS011;10977;46.802;11.952;2022-09-24T05:38:28;8.43;;;6.80;;
21630;SDS011;10977;46.802;11.952;2022-09-24T05:40:54;8.48;;;6.72;;
21630;SDS011;10977;46.802;11.952;2022-09-24T05:43:19;8.45;;;6.80;;
21630;SDS011;10977;46.802;11.952;2022-09-24T05:45:46;7.07;;;6.10;;
21630;SDS011;10977;46.802;11.952;2022-09-24T05:48:14;9.18;;;7.25;;
21630;SDS011;10977;46.802;11.952;2022-09-24T05:50:39;10.30;;;7.00;;
21630;SDS011;10977;46.802;11.952;2022-09-24T05:53:04;10.73;;;7.38;;
21630;SDS011;10977;46.802;11.952;2022-09-24T05:55:30;7.43;;;6.45;;
21630;SDS011;10977;46.802;11.952;2022-09-24T05:58:05;7.15;;;6.00;;
21630;SDS011;10977;46.802;11.952;2022-09-24T06:00:32;12.23;;;6.15;;
21630;SDS011;10977;46.802;11.952;2022-09-24T06:03:01;11.38;;;6.85;;
21630;SDS011;10977;46.802;11.952;2022-09-24T06:05:31;8.85;;;6.40;;
21630;SDS011;10977;46.802;11.952;2022-09-24T06:07:58;15.07;;;11.32;;
21630;SDS011;10977;46.802;11.952;2022-09-24T06:10:23;33.78;;;22.83;;
21630;SDS011;10977;46.802;11.952;2022-09-24T06:12:50;13.55;;;9.25;;
21630;SDS011;10977;46.802;11.952;2022-09-24T06:15:17;9.15;;;7.57;;
21630;SDS011;10977;46.802;11.952;2022-09-24T06:17:43;8.23;;;7.40;;
21630;SDS011;10977;46.802;11.952;2022-09-24T06:20:08;19.20;;;13.40;;
21630;SDS011;10977;46.802;11.952;2022-09-24T06:22:34;14.75;;;10.05;;
21630;SDS011;10977;46.802;11.952;2022-09-24T06:24:59;9.38;;;7.63;;
21630;SDS011;10977;46.802;11.952;2022-09-24T06:27:24;8.35;;;6.93;;
21630;SDS011;10977;46.802;11.952;2022-09-24T06:29:50;10.98;;;6.60;;
21630;SDS011;10977;46.802;11.952;2022-09-24T06:32:15;8.60;;;6.35;;
21630;SDS011;10977;46.802;11.952;2022-09-24T06:34:42;8.02;;;7.22;;
21630;SDS011;10977;46.802;11.952;2022-09-24T06:37:07;7.60;;;6.65;;
21630;SDS011;10977;46.802;11.952;2022-09-24T06:39:32;8.88;;;6.68;;
21630;SDS011;10977;46.802;11.952;2022-09-24T06:41:58;10.27;;;6.47;;
21630;SDS011;10977;46.802;11.952;2022-09-24T06:44:23;7.50;;;5.90;;
21630;SDS011;10977;46.802;11.952;2022-09-24T06:46:48;9.25;;;6.65;;
21630;SDS011;10977;46.802;11.952;2022-09-24T06:49:15;10.82;;;6.70;;
21630;SDS011;10977;46.802;11.952;2022-09-24T06:51:40;11.10;;;7.20;;
21630;SDS011;10977;46.802;11.952;2022-09-24T06:54:05;10.48;;;7.22;;
21630;SDS011;10977;46.802;11.952;2022-09-24T06:56:31;8.90;;;7.18;;
21630;SDS011;10977;46.802;11.952;2022-09-24T06:58:56;10.93;;;7.55;;
21630;SDS011;10977;46.802;11.952;2022-09-24T07:01:21;11.75;;;7.72;;
21630;SDS011;10977;46.802;11.952;2022-09-24T07:03:47;10.57;;;7.38;;
21630;SDS011;10977;46.802;11.952;2022-09-24T07:06:12;9.68;;;7.07;;
21630;SDS011;10977;46.802;11.952;2022-09-24T07:08:38;12.15;;;8.13;;
21630;SDS011;10977;46.802;11.952;2022-09-24T07:11:03;15.70;;;11.68;;
21630;SDS011;10977;46.802;11.952;2022-09-24T07:13:29;11.25;;;8.77;;
21630;SDS011;10977;46.802;11.952;2022-09-24T07:15:55;9.25;;;7.93;;
21630;SDS011;10977;46.802;11.952;2022-09-24T07:18:20;8.73;;;7.75;;
21630;SDS011;10977;46.802;11.952;2022-09-24T07:20:52;7.22;;;6.10;;
21630;SDS011;10977;46.802;11.952;2022-09-24T07:23:18;8.13;;;6.30;;
21630;SDS011;10977;46.802;11.952;2022-09-24T07:25:43;10.57;;;7.30;;
21630;SDS011;10977;46.802;11.952;2022-09-24T07:28:10;9.02;;;6.70;;
21630;SDS011;10977;46.802;11.952;2022-09-24T07:30:37;10.15;;;6.25;;
21630;SDS011;10977;46.802;11.952;2022-09-24T07:33:03;6.82;;;6.05;;
21630;SDS011;10977;46.802;11.952;2022-09-24T07:35:29;10.90;;;7.30;;
21630;SDS011;10977;46.802;11.952;2022-09-24T07:38:05;12.70;;;6.75;;
21630;SDS011;10977;46.802;11.952;2022-09-24T07:40:32;7.63;;;6.15;;
21630;SDS011;10977;46.802;11.952;2022-09-24T07:42:58;7.47;;;6.70;;
21630;SDS011;10977;46.802;11.952;2022-09-24T07:45:25;7.95;;;6.32;;
21630;SDS011;10977;46.802;11.952;2022-09-24T07:47:59;7.80;;;6.20;;
21630;SDS011;10977;46.802;11.952;2022-09-24T07:50:26;7.40;;;6.50;;
21630;SDS011;10977;46.802;11.952;2022-09-24T07:52:53;8.05;;;6.15;;
21630;SDS011;10977;46.802;11.952;2022-09-24T07:55:18;8.13;;;6.90;;
21630;SDS011;10977;46.802;11.952;2022-09-24T07:57:51;12.45;;;9.30;;
21630;SDS011;10977;46.802;11.952;2022-09-24T08:00:18;12.80;;;8.68;;
21630;SDS011;10977;46.802;11.952;2022-09-24T08:02:45;10.15;;;7.18;;
21630;SDS011;10977;46.802;11.952;2022-09-24T08:05:11;8.23;;;6.80;;
21630;SDS011;10977;46.802;11.952;2022-09-24T08:07:39;7.20;;;6.47;;
21630;SDS011;10977;46.802;11.952;2022-09-24T08:10:05;7.90;;;6.65;;
21630;SDS011;10977;46.802;11.952;2022-09-24T08:12:30;8.23;;;6.28;;
21630;SDS011;10977;46.802;11.952;2022-09-24T08:14:56;9.02;;;6.65;;
21630;SDS011;10977;46.802;11.952;2022-09-24T08:17:21;7.13;;;5.82;;
21630;SDS011;10977;46.802;11.952;2022-09-24T08:19:47;6.45;;;5.68;;
21630;SDS011;10977;46.802;11.952;2022-09-24T08:22:12;6.70;;;5.95;;
21630;SDS011;10977;46.802;11.952;2022-09-24T08:24:38;16.58;;;11.27;;
21630;SDS011;10977;46.802;11.952;2022-09-24T08:27:04;11.20;;;8.15;;
21630;SDS011;10977;46.802;11.952;2022-09-24T08:29:29;8.63;;;6.50;;
21630;SDS011;10977;46.802;11.952;2022-09-24T08:31:55;8.55;;;6.40;;
21630;SDS011;10977;46.802;11.952;2022-09-24T08:34:20;9.70;;;6.45;;
21630;SDS011;10977;46.802;11.952;2022-09-24T08:36:45;8.43;;;7.00;;
21630;SDS011;10977;46.802;11.952;2022-09-24T08:39:11;10.50;;;7.13;;
21630;SDS011;10977;46.802;11.952;2022-09-24T08:44:30;8.75;;;6.90;;
21630;SDS011;10977;46.802;11.952;2022-09-24T08:47:29;9.20;;;7.32;;
21630;SDS011;10977;46.802;11.952;2022-09-24T08:50:07;9.57;;;7.43;;
21630;SDS011;10977;46.802;11.952;2022-09-24T08:52:47;12.60;;;7.43;;
21630;SDS011;10977;46.802;11.952;2022-09-24T08:55:21;11.85;;;8.02;;
21630;SDS011;10977;46.802;11.952;2022-09-24T09:00:47;11.80;;;8.90;;
21630;SDS011;10977;46.802;11.952;2022-09-24T09:03:21;9.95;;;7.82;;
21630;SDS011;10977;46.802;11.952;2022-09-24T09:06:45;10.75;;;8.07;;
21630;SDS011;10977;46.802;11.952;2022-09-24T09:11:42;12.35;;;9.35;;
21630;SDS011;10977;46.802;11.952;2022-09-24T09:14:23;12.88;;;9.77;;
21630;SDS011;10977;46.802;11.952;2022-09-24T09:16:58;11.13;;;8.77;;
21630;SDS011;10977;46.802;11.952;2022-09-24T09:19:30;10.68;;;8.27;;
21630;SDS011;10977;46.802;11.952;2022-09-24T09:22:05;10.73;;;8.80;;
21630;SDS011;10977;46.802;11.952;2022-09-24T09:27:13;11.45;;;8.18;;
21630;SDS011;10977;46.802;11.952;2022-09-24T09:29:41;9.38;;;6.78;;
21630;SDS011;10977;46.802;11.952;2022-09-24T09:35:14;10.50;;;7.93;;
21630;SDS011;10977;46.802;11.952;2022-09-24T09:37:50;10.70;;;7.30;;
21630;SDS011;10977;46.802;11.952;2022-09-24T09:43:02;10.77;;;7.18;;
21630;SDS011;10977;46.802;11.952;2022-09-24T09:48:14;22.13;;;17.83;;
21630;SDS011;10977;46.802;11.952;2022-09-24T09:50:45;11.45;;;8.82;;
21630;SDS011;10977;46.802;11.952;2022-09-24T09:53:26;10.18;;;9.18;;
21630;SDS011;10977;46.802;11.952;2022-09-24T09:55:53;10.35;;;8.80;;
21630;SDS011;10977;46.802;11.952;2022-09-24T09:58:26;10.50;;;8.10;;
21630;SDS011;10977;46.802;11.952;2022-09-24T10:01:02;15.77;;;8.70;;
21630;SDS011;10977;46.802;11.952;2022-09-24T10:03:31;8.65;;;7.78;;
21630;SDS011;10977;46.802;11.952;2022-09-24T10:06:00;11.00;;;8.27;;
21630;SDS011;10977;46.802;11.952;2022-09-24T10:08:29;9.50;;;8.55;;
21630;SDS011;10977;46.802;11.952;2022-09-24T10:10:55;9.80;;;8.43;;
21630;SDS011;10977;46.802;11.952;2022-09-24T10:13:22;14.95;;;8.68;;
21630;SDS011;10977;46.802;11.952;2022-09-24T10:15:52;10.45;;;8.65;;
21630;SDS011;10977;46.802;11.952;2022-09-24T10:18:22;13.30;;;9.02;;
21630;SDS011;10977;46.802;11.952;2022-09-24T10:20:52;25.55;;;19.83;;
21630;SDS011;10977;46.802;11.952;2022-09-24T10:23:22;15.88;;;10.68;;
21630;SDS011;10977;46.802;11.952;2022-09-24T10:25:59;13.73;;;10.30;;
21630;SDS011;10977;46.802;11.952;2022-09-24T10:28:26;10.43;;;9.30;;
21630;SDS011;10977;46.802;11.952;2022-09-24T10:31:19;11.75;;;10.07;;
21630;SDS011;10977;46.802;11.952;2022-09-24T10:33:48;11.93;;;9.45;;
21630;SDS011;10977;46.802;11.952;2022-09-24T10:36:20;14.02;;;10.32;;
21630;SDS011;10977;46.802;11.952;2022-09-24T10:38:47;13.25;;;11.30;;
21630;SDS011;10977;46.802;11.952;2022-09-24T10:41:24;13.65;;;11.52;;
21630;SDS011;10977;46.802;11.952;2022-09-24T10:43:51;13.13;;;11.43;;
21630;SDS011;10977;46.802;11.952;2022-09-24T10:48:53;13.73;;;12.30;;
21630;SDS011;10977;46.802;11.952;2022-09-24T10:56:51;13.90;;;11.77;;
21630;SDS011;10977;46.802;11.952;2022-09-24T11:02:20;15.20;;;11.90;;
21630;SDS011;10977;46.802;11.952;2022-09-24T11:05:21;18.27;;;12.32;;
21630;SDS011;10977;46.802;11.952;2022-09-24T11:20:59;14.38;;;12.52;;
21630;SDS011;10977;46.802;11.952;2022-09-24T11:37:57;12.82;;;10.00;;
21630;SDS011;10977;46.802;11.952;2022-09-24T11:53:13;16.05;;;12.30;;
21630;SDS011;10977;46.802;11.952;2022-09-24T11:58:25;15.85;;;13.52;;
21630;SDS011;10977;46.802;11.952;2022-09-24T12:00:56;15.52;;;12.18;;
21630;SDS011;10977;46.802;11.952;2022-09-24T12:06:31;15.70;;;13.15;;
21630;SDS011;10977;46.802;11.952;2022-09-24T12:09:16;16.58;;;13.35;;
21630;SDS011;10977;46.802;11.952;2022-09-24T12:17:26;15.57;;;13.23;;
21630;SDS011;10977;46.802;11.952;2022-09-24T12:20:14;17.08;;;13.98;;
21630;SDS011;10977;46.802;11.952;2022-09-24T12:22:45;15.07;;;13.38;;
21630;SDS011;10977;46.802;11.952;2022-09-24T12:25:13;18.75;;;14.15;;
21630;SDS011;10977;46.802;11.952;2022-09-24T12:27:39;17.83;;;13.50;;
21630;SDS011;10977;46.802;11.952;2022-09-24T12:36:00;15.40;;;13.75;;
21630;SDS011;10977;46.802;11.952;2022-09-24T12:38:33;16.63;;;13.00;;
21630;SDS011;10977;46.802;11.952;2022-09-24T12:43:57;13.73;;;12.07;;
21630;SDS011;10977;46.802;11.952;2022-09-24T12:46:24;15.20;;;11.98;;
21630;SDS011;10977;46.802;11.952;2022-09-24T12:48:55;15.48;;;12.43;;
21630;SDS011;10977;46.802;11.952;2022-09-24T12:51:21;16.48;;;12.77;;
21630;SDS011;10977;46.802;11.952;2022-09-24T12:53:58;14.93;;;12.70;;
21630;SDS011;10977;46.802;11.952;2022-09-24T12:56:29;17.92;;;13.00;;
21630;SDS011;10977;46.802;11.952;2022-09-24T12:58:55;14.52;;;12.93;;
21630;SDS011;10977;46.802;11.952;2022-09-24T13:03:59;16.95;;;14.10;;
21630;SDS011;10977;46.802;11.952;2022-09-24T13:06:31;14.90;;;13.07;;
21630;SDS011;10977;46.802;11.952;2022-09-24T13:09:02;17.15;;;14.27;;
21630;SDS011;10977;46.802;11.952;2022-09-24T13:11:45;17.35;;;15.40;;
21630;SDS011;10977;46.802;11.952;2022-09-24T13:16:37;18.10;;;14.30;;
21630;SDS011;10977;46.802;11.952;2022-09-24T13:19:04;15.13;;;13.25;;
21630;SDS011;10977;46.802;11.952;2022-09-24T13:21:52;18.38;;;13.93;;
21630;SDS011;10977;46.802;11.952;2022-09-24T13:24:30;15.45;;;13.07;;
21630;SDS011;10977;46.802;11.952;2022-09-24T13:29:46;16.63;;;14.38;;
21630;SDS011;10977;46.802;11.952;2022-09-24T13:32:17;16.83;;;14.15;;
21630;SDS011;10977;46.802;11.952;2022-09-24T13:34:45;17.23;;;14.45;;
21630;SDS011;10977;46.802;11.952;2022-09-24T13:37:32;22.08;;;16.45;;
21630;SDS011;10977;46.802;11.952;2022-09-24T13:40:03;17.90;;;15.15;;
21630;SDS011;10977;46.802;11.952;2022-09-24T13:45:23;21.73;;;15.98;;
21630;SDS011;10977;46.802;11.952;2022-09-24T13:47:53;20.25;;;17.02;;
21630;SDS011;10977;46.802;11.952;2022-09-24T13:50:22;18.10;;;16.05;;
21630;SDS011;10977;46.802;11.952;2022-09-24T13:55:28;17.05;;;15.25;;
21630;SDS011;10977;46.802;11.952;2022-09-24T13:57:56;17.83;;;15.27;;
21630;SDS011;10977;46.802;11.952;2022-09-24T14:00:22;20.60;;;16.42;;
21630;SDS011;10977;46.802;11.952;2022-09-24T14:05:46;19.10;;;16.52;;
21630;SDS011;10977;46.802;11.952;2022-09-24T14:08:13;18.55;;;16.27;;
21630;SDS011;10977;46.802;11.952;2022-09-24T14:10:41;19.23;;;15.82;;
21630;SDS011;10977;46.802;11.952;2022-09-24T14:16:27;19.33;;;15.52;;
21630;SDS011;10977;46.802;11.952;2022-09-24T14:18:37;16.95;;;14.70;;
21630;SDS011;10977;46.802;11.952;2022-09-24T14:21:05;22.13;;;16.10;;
21630;SDS011;10977;46.802;11.952;2022-09-24T14:23:42;16.85;;;14.73;;
21630;SDS011;10977;46.802;11.952;2022-09-24T14:26:27;17.38;;;14.60;;
21630;SDS011;10977;46.802;11.952;2022-09-24T14:29:02;19.42;;;15.30;;
21630;SDS011;10977;46.802;11.952;2022-09-24T14:31:32;17.88;;;15.93;;
21630;SDS011;10977;46.802;11.952;2022-09-24T14:34:07;20.63;;;17.63;;
21630;SDS011;10977;46.802;11.952;2022-09-24T14:36:48;18.02;;;16.05;;
21630;SDS011;10977;46.802;11.952;2022-09-24T14:39:15;19.05;;;16.00;;
21630;SDS011;10977;46.802;11.952;2022-09-24T14:41:41;18.80;;;15.65;;
21630;SDS011;10977;46.802;11.952;2022-09-24T14:44:22;20.67;;;16.58;;
21630;SDS011;10977;46.802;11.952;2022-09-24T14:46:51;25.25;;;18.33;;
21630;SDS011;10977;46.802;11.952;2022-09-24T14:49:40;18.45;;;16.52;;
21630;SDS011;10977;46.802;11.952;2022-09-24T14:52:23;19.48;;;16.55;;
21630;SDS011;10977;46.802;11.952;2022-09-24T14:55:02;21.48;;;18.63;;
21630;SDS011;10977;46.802;11.952;2022-09-24T14:57:38;19.02;;;16.33;;
21630;SDS011;10977;46.802;11.952;2022-09-24T15:00:17;19.13;;;16.35;;
21630;SDS011;10977;46.802;11.952;2022-09-24T15:02:45;20.00;;;17.50;;
21630;SDS011;10977;46.802;11.952;2022-09-24T15:05:14;20.95;;;17.05;;
21630;SDS011;10977;46.802;11.952;2022-09-24T15:07:40;19.33;;;16.98;;
21630;SDS011;10977;46.802;11.952;2022-09-24T15:10:05;21.40;;;19.02;;
21630;SDS011;10977;46.802;11.952;2022-09-24T15:12:32;18.15;;;16.27;;
21630;SDS011;10977;46.802;11.952;2022-09-24T15:15:00;20.33;;;15.85;;
21630;SDS011;10977;46.802;11.952;2022-09-24T15:17:30;18.42;;;16.25;;
21630;SDS011;10977;46.802;11.952;2022-09-24T15:19:56;21.38;;;17.50;;
21630;SDS011;10977;46.802;11.952;2022-09-24T15:22:22;18.88;;;16.88;;
21630;SDS011;10977;46.802;11.952;2022-09-24T15:24:51;19.67;;;16.95;;
21630;SDS011;10977;46.802;11.952;2022-09-24T15:27:20;19.60;;;16.92;;
21630;SDS011;10977;46.802;11.952;2022-09-24T15:29:51;22.45;;;19.08;;
21630;SDS011;10977;46.802;11.952;2022-09-24T15:32:19;23.60;;;19.55;;
21630;SDS011;10977;46.802;11.952;2022-09-24T15:34:45;21.20;;;18.90;;
21630;SDS011;10977;46.802;11.952;2022-09-24T15:37:12;23.73;;;21.15;;
21630;SDS011;10977;46.802;11.952;2022-09-24T15:39:40;18.60;;;16.60;;
21630;SDS011;10977;46.802;11.952;2022-09-24T15:42:13;21.08;;;18.40;;
21630;SDS011;10977;46.802;11.952;2022-09-24T15:44:39;24.38;;;20.60;;
21630;SDS011;10977;46.802;11.952;2022-09-24T15:47:06;20.60;;;18.40;;
21630;SDS011;10977;46.802;11.952;2022-09-24T15:49:32;21.15;;;17.65;;
21630;SDS011;10977;46.802;11.952;2022-09-24T15:52:01;25.13;;;19.83;;
21630;SDS011;10977;46.802;11.952;2022-09-24T15:54:30;21.08;;;18.83;;
21630;SDS011;10977;46.802;11.952;2022-09-24T15:56:56;19.38;;;17.27;;
21630;SDS011;10977;46.802;11.952;2022-09-24T15:59:22;22.30;;;18.30;;
21630;SDS011;10977;46.802;11.952;2022-09-24T16:01:48;20.35;;;17.95;;
21630;SDS011;10977;46.802;11.952;2022-09-24T16:04:16;36.83;;;28.50;;
21630;SDS011;10977;46.802;11.952;2022-09-24T16:06:41;26.67;;;21.88;;
21630;SDS011;10977;46.802;11.952;2022-09-24T16:09:07;21.88;;;17.88;;
21630;SDS011;10977;46.802;11.952;2022-09-24T16:11:33;21.67;;;19.35;;
21630;SDS011;10977;46.802;11.952;2022-09-24T16:13:58;23.77;;;19.13;;
21630;SDS011;10977;46.802;11.952;2022-09-24T16:16:24;19.15;;;16.92;;
21630;SDS011;10977;46.802;11.952;2022-09-24T16:18:49;21.30;;;17.77;;
21630;SDS011;10977;46.802;11.952;2022-09-24T16:21:14;20.17;;;18.05;;
21630;SDS011;10977;46.802;11.952;2022-09-24T16:23:40;22.13;;;19.20;;
21630;SDS011;10977;46.802;11.952;2022-09-24T16:26:06;20.60;;;18.40;;
21630;SDS011;10977;46.802;11.952;2022-09-24T16:28:31;21.02;;;18.02;;
21630;SDS011;10977;46.802;11.952;2022-09-24T16:30:57;23.10;;;18.83;;
21630;SDS011;10977;46.802;11.952;2022-09-24T16:33:22;22.33;;;19.92;;
21630;SDS011;10977;46.802;11.952;2022-09-24T16:35:49;22.70;;;20.23;;
21630;SDS011;10977;46.802;11.952;2022-09-24T16:38:14;23.10;;;20.58;;
21630;SDS011;10977;46.802;11.952;2022-09-24T16:40:41;25.35;;;22.48;;
21630;SDS011;10977;46.802;11.952;2022-09-24T16:43:06;28.88;;;23.30;;
21630;SDS011;10977;46.802;11.952;2022-09-24T16:45:31;26.90;;;23.98;;
21630;SDS011;10977;46.802;11.952;2022-09-24T16:47:57;25.42;;;21.58;;
21630;SDS011;10977;46.802;11.952;2022-09-24T16:50:23;24.75;;;21.35;;